Home > Products > Valid Products > TAF

000
FTUS45 KREV 010520
TAFRNO
TAF
KRNO 010520Z 0106/0206 VRB04KT P6SM SKC
     FM012200 27013G22KT P6SM SKC
     FM020500 VRB03KT P6SM SKC=



000
FTUS45 KREV 010520
TAFRNO
TAF
KRNO 010520Z 0106/0206 VRB04KT P6SM SKC
     FM012200 27013G22KT P6SM SKC
     FM020500 VRB03KT P6SM SKC=



000
FTUS45 KREV 312321
TAFRNO
TAF
KRNO 312321Z 0100/0124 31010KT P6SM FEW250
     FM010400 VRB04KT P6SM SKC
     FM012200 25013G22KT P6SM SKC=



000
FTUS45 KREV 312321
TAFRNO
TAF
KRNO 312321Z 0100/0124 31010KT P6SM FEW250
     FM010400 VRB04KT P6SM SKC
     FM012200 25013G22KT P6SM SKC=



000
FTUS45 KREV 311730
TAFRNO
TAF
KRNO 311730Z 3118/0118 VRB03KT P6SM FEW250
     FM312200 31010KT P6SM FEW250
     FM010400 VRB04KT P6SM SKC=



000
FTUS45 KREV 311120
TAFRNO
TAF
KRNO 311120Z 3112/0112 VRB03KT P6SM SKC
     FM312200 31010KT P6SM SKC
     FM010400 VRB04KT P6SM SKC=



000
FTUS45 KREV 311120
TAFRNO
TAF
KRNO 311120Z 3112/0112 VRB03KT P6SM SKC
     FM312200 31010KT P6SM SKC
     FM010400 VRB04KT P6SM SKC=



000
FTUS45 KREV 311120
TAFRNO
TAF
KRNO 311120Z 3112/0112 VRB03KT P6SM SKC
     FM312200 31010KT P6SM SKC
     FM010400 VRB04KT P6SM SKC=



000
FTUS45 KREV 311120
TAFRNO
TAF
KRNO 311120Z 3112/0112 VRB03KT P6SM SKC
     FM312200 31010KT P6SM SKC
     FM010400 VRB04KT P6SM SKC=



000
FTUS45 KREV 310520
TAFRNO
TAF
KRNO 310520Z 3106/0106 VRB03KT P6SM FEW220
     FM312200 31010KT P6SM SKC
     FM010300 VRB04KT P6SM SKC=



000
FTUS45 KREV 310520
TAFRNO
TAF
KRNO 310520Z 3106/0106 VRB03KT P6SM FEW220
     FM312200 31010KT P6SM SKC
     FM010300 VRB04KT P6SM SKC=



000
FTUS45 KREV 310520
TAFRNO
TAF
KRNO 310520Z 3106/0106 VRB03KT P6SM FEW220
     FM312200 31010KT P6SM SKC
     FM010300 VRB04KT P6SM SKC=



000
FTUS45 KREV 310520
TAFRNO
TAF
KRNO 310520Z 3106/0106 VRB03KT P6SM FEW220
     FM312200 31010KT P6SM SKC
     FM010300 VRB04KT P6SM SKC=



000
FTUS45 KREV 302332
TAFRNO
TAF
KRNO 302332Z 3100/3124 30015G24KT P6SM SCT250
     FM310500 VRB03KT P6SM FEW220
     FM312200 31010KT P6SM SKC=



000
FTUS45 KREV 302332
TAFRNO
TAF
KRNO 302332Z 3100/3124 30015G24KT P6SM SCT250
     FM310500 VRB03KT P6SM FEW220
     FM312200 31010KT P6SM SKC=



000
FTUS45 KREV 301727
TAFRNO
TAF
KRNO 301727Z 3018/3118 VRB04KT P6SM FEW080 BKN200
     FM302100 30015G24KT P6SM SCT200
     FM310500 VRB03KT P6SM FEW220=



000
FTUS45 KREV 301727
TAFRNO
TAF
KRNO 301727Z 3018/3118 VRB04KT P6SM FEW080 BKN200
     FM302100 30015G24KT P6SM SCT200
     FM310500 VRB03KT P6SM FEW220=



000
FTUS45 KREV 301727
TAFRNO
TAF
KRNO 301727Z 3018/3118 VRB04KT P6SM FEW080 BKN200
     FM302100 30015G24KT P6SM SCT200
     FM310500 VRB03KT P6SM FEW220=



000
FTUS45 KREV 301727
TAFRNO
TAF
KRNO 301727Z 3018/3118 VRB04KT P6SM FEW080 BKN200
     FM302100 30015G24KT P6SM SCT200
     FM310500 VRB03KT P6SM FEW220=



000
FTUS45 KREV 301120
TAFRNO
TAF
KRNO 301120Z 3012/3112 VRB04KT P6SM SCT200
     FM302100 30014G22KT P6SM SCT200
     FM310500 VRB03KT P6SM SKC=



000
FTUS45 KREV 301120
TAFRNO
TAF
KRNO 301120Z 3012/3112 VRB04KT P6SM SCT200
     FM302100 30014G22KT P6SM SCT200
     FM310500 VRB03KT P6SM SKC=



000
FTUS45 KREV 301120
TAFRNO
TAF
KRNO 301120Z 3012/3112 VRB04KT P6SM SCT200
     FM302100 30014G22KT P6SM SCT200
     FM310500 VRB03KT P6SM SKC=



000
FTUS45 KREV 301120
TAFRNO
TAF
KRNO 301120Z 3012/3112 VRB04KT P6SM SCT200
     FM302100 30014G22KT P6SM SCT200
     FM310500 VRB03KT P6SM SKC=



000
FTUS45 KREV 300615 RRA
TAFRNO
TAF
KRNO 300615Z 3006/3106 26011KT P6SM SCT080 SCT150 BKN200
     FM300700 VRB04KT P6SM SCT200
     FM302000 30009G17KT P6SM SCT200=



000
FTUS45 KREV 300615 RRA
TAFRNO
TAF
KRNO 300615Z 3006/3106 26011KT P6SM SCT080 SCT150 BKN200
     FM300700 VRB04KT P6SM SCT200
     FM302000 30009G17KT P6SM SCT200=



000
FTUS45 KREV 300615 RRA
TAFRNO
TAF
KRNO 300615Z 3006/3106 26011KT P6SM SCT080 SCT150 BKN200
     FM300700 VRB04KT P6SM SCT200
     FM302000 30009G17KT P6SM SCT200=



000
FTUS45 KREV 300615 RRA
TAFRNO
TAF
KRNO 300615Z 3006/3106 26011KT P6SM SCT080 SCT150 BKN200
     FM300700 VRB04KT P6SM SCT200
     FM302000 30009G17KT P6SM SCT200=



000
FTUS45 KREV 300350 AAB
TAFRNO
TAF AMD
KRNO 300350Z 3004/3024 26011KT P6SM SCT080 SCT150 BKN200
     FM300700 VRB04KT P6SM SCT200
     FM302000 30008KT P6SM SCT200=



000
FTUS45 KREV 300350 AAB
TAFRNO
TAF AMD
KRNO 300350Z 3004/3024 26011KT P6SM SCT080 SCT150 BKN200
     FM300700 VRB04KT P6SM SCT200
     FM302000 30008KT P6SM SCT200=



000
FTUS45 KREV 300350 AAB
TAFRNO
TAF AMD
KRNO 300350Z 3004/3024 26011KT P6SM SCT080 SCT150 BKN200
     FM300700 VRB04KT P6SM SCT200
     FM302000 30008KT P6SM SCT200=



000
FTUS45 KREV 300124 AAA
TAFRNO
TAF AMD
KRNO 300124Z 3001/3024 23021G32KT P6SM SCT080 BKN150
     FM300300 28014G26KT P6SM SCT080 SCT150 BKN200
     FM300600 VRB04KT P6SM SCT200
     FM302000 30008KT P6SM SCT200=



000
FTUS45 KREV 300124 AAA
TAFRNO
TAF AMD
KRNO 300124Z 3001/3024 23021G32KT P6SM SCT080 BKN150
     FM300300 28014G26KT P6SM SCT080 SCT150 BKN200
     FM300600 VRB04KT P6SM SCT200
     FM302000 30008KT P6SM SCT200=



000
FTUS45 KREV 300124 AAA
TAFRNO
TAF AMD
KRNO 300124Z 3001/3024 23021G32KT P6SM SCT080 BKN150
     FM300300 28014G26KT P6SM SCT080 SCT150 BKN200
     FM300600 VRB04KT P6SM SCT200
     FM302000 30008KT P6SM SCT200=



000
FTUS45 KREV 292325
TAFRNO
TAF
KRNO 292325Z 3000/3024 23021G32KT P6SM SCT080 BKN150
     FM300100 28014G26KT P6SM SCT080 SCT150 BKN200
     FM300600 VRB04KT P6SM SCT200
     FM302000 30008KT P6SM SCT200=



000
FTUS45 KREV 292325
TAFRNO
TAF
KRNO 292325Z 3000/3024 23021G32KT P6SM SCT080 BKN150
     FM300100 28014G26KT P6SM SCT080 SCT150 BKN200
     FM300600 VRB04KT P6SM SCT200
     FM302000 30008KT P6SM SCT200=



000
FTUS45 KREV 292325
TAFRNO
TAF
KRNO 292325Z 3000/3024 23021G32KT P6SM SCT080 BKN150
     FM300100 28014G26KT P6SM SCT080 SCT150 BKN200
     FM300600 VRB04KT P6SM SCT200
     FM302000 30008KT P6SM SCT200=



000
FTUS45 KREV 292113 AAA
TAFRNO
TAF AMD
KRNO 292113Z 2921/3018 20020G29KT P6SM SCT080 SCT150 BKN200
      WS020/25045KT
     FM292300 25021G32KT P6SM SCT080 BKN150
     FM300100 28014G26KT P6SM SCT080 SCT150 BKN200
     FM300600 VRB04KT P6SM SCT200=



000
FTUS45 KREV 292113 AAA
TAFRNO
TAF AMD
KRNO 292113Z 2921/3018 20020G29KT P6SM SCT080 SCT150 BKN200
      WS020/25045KT
     FM292300 25021G32KT P6SM SCT080 BKN150
     FM300100 28014G26KT P6SM SCT080 SCT150 BKN200
     FM300600 VRB04KT P6SM SCT200=



000
FTUS45 KREV 292113 AAA
TAFRNO
TAF AMD
KRNO 292113Z 2921/3018 20020G29KT P6SM SCT080 SCT150 BKN200
      WS020/25045KT
     FM292300 25021G32KT P6SM SCT080 BKN150
     FM300100 28014G26KT P6SM SCT080 SCT150 BKN200
     FM300600 VRB04KT P6SM SCT200=



000
FTUS45 KREV 292113 AAA
TAFRNO
TAF AMD
KRNO 292113Z 2921/3018 20020G29KT P6SM SCT080 SCT150 BKN200
      WS020/25045KT
     FM292300 25021G32KT P6SM SCT080 BKN150
     FM300100 28014G26KT P6SM SCT080 SCT150 BKN200
     FM300600 VRB04KT P6SM SCT200=



000
FTUS45 KREV 291721
TAFRNO
TAF
KRNO 291721Z 2918/3018 19020G32KT P6SM SCT080 SCT150 BKN200
      WS020/25045KT
     FM292000 24024G36KT P6SM SCT080 BKN150
     FM300100 28014G26KT P6SM SCT080 SCT150 BKN200
     FM300600 VRB04KT P6SM SCT200=



000
FTUS45 KREV 291721
TAFRNO
TAF
KRNO 291721Z 2918/3018 19020G32KT P6SM SCT080 SCT150 BKN200
      WS020/25045KT
     FM292000 24024G36KT P6SM SCT080 BKN150
     FM300100 28014G26KT P6SM SCT080 SCT150 BKN200
     FM300600 VRB04KT P6SM SCT200=



000
FTUS45 KREV 291120
TAFRNO
TAF
KRNO 291120Z 2912/3012 18014G26KT P6SM SCT140 BKN200
     FM291700 21025G35KT P6SM SCT080 BKN200
     FM300100 25015G25KT P6SM SCT080 SCT200
     FM300500 VRB04KT P6SM SKC=



000
FTUS45 KREV 291120
TAFRNO
TAF
KRNO 291120Z 2912/3012 18014G26KT P6SM SCT140 BKN200
     FM291700 21025G35KT P6SM SCT080 BKN200
     FM300100 25015G25KT P6SM SCT080 SCT200
     FM300500 VRB04KT P6SM SKC=



000
FTUS45 KREV 291120
TAFRNO
TAF
KRNO 291120Z 2912/3012 18014G26KT P6SM SCT140 BKN200
     FM291700 21025G35KT P6SM SCT080 BKN200
     FM300100 25015G25KT P6SM SCT080 SCT200
     FM300500 VRB04KT P6SM SKC=



000
FTUS45 KREV 291120
TAFRNO
TAF
KRNO 291120Z 2912/3012 18014G26KT P6SM SCT140 BKN200
     FM291700 21025G35KT P6SM SCT080 BKN200
     FM300100 25015G25KT P6SM SCT080 SCT200
     FM300500 VRB04KT P6SM SKC=



    US Dept of Commerce
    National Oceanic and Atmospheric Administration
    National Weather Service
    1325 East West Highway
    Silver Spring, MD 20910
    Page Author: NWS Internet Services Team
Disclaimer
Information Quality
Credits
Glossary
Privacy Policy
Freedom of Information Act (FOIA)
About Us
Career Opportunities